Aérodrome :
LOGIN :

S'inscrire | Disclaimer

   EN    FR    IT 

 










Légende :    VFR   VFR Marginal   IFR   IFR Intensif   IFR Très Intensif
Visi : 
Plafond : 
>= 8 km
>= 3000ft
5 à 8 km
1000 à 3000 ft
1500m à 5 km
500 à 1000 ft
800 à 1500m
200 à 500 ft
< 800m
< 200 ft
Symboles :   Orages  Brouillard  Fortes neiges  Fortes précipitations  Vent > 20 kt
SIGMETs :   Divers  Orages  Givrage  Turbulence  Onde Orograph.  Cendres Volcan.






- Altitude de l'aérodrome : 670 ft
- Code IATA : MSQ


UMMS - Minsk - 2

DERNIER METAR :
  • 100730Z 02003MPS CAVOK 23/16 Q1018 R31R/CLRD// R31L/////// NOSIG

METARs EXPIRÉS :
  • 100700Z 04003MPS 360V090 CAVOK 24/16 Q1018 R31R/CLRD// R31L/////// NOSIG
  • 100630Z 02002MPS 330V070 CAVOK 23/16 Q1018 R31R/CLRD// R31L/////// NOSIG
  • 100600Z 36002MPS 320V020 CAVOK 21/17 Q1019 R31R/CLRD// R31L/////// NOSIG
  • 100530Z 32002MPS CAVOK 19/17 Q1019 R31R/CLRD// R31L/////// NOSIG
  • 100500Z 32002MPS CAVOK 17/16 Q1019 R31R/CLRD// R31L/////// NOSIG

TAF TAF UMMS
Valide du 10 à 06h jusqu'au 11 à 06h UTC


100502Z 1006/1106 VRB02MPS 9999 BKN030 TX26/1013Z TN13/1102Z
TEMPO 1006/1020 VRB16MPS 1200 TSRAGR SQ BKN006 BKN025CB
TEMPO 1020/1106 2000 BR BKN003



MET'MAP, la Météo Aéronautique d'un coup d'oeil ! - Copyright ORBIFLY Décembre 2007 - Disclaimer

ORBIFLY MET'MAP TEAM :

Programmation & Développement : Alexandra Zaïnal
Sur une idée originale de : Baudouin d'Aumeries
Assistance à la programmation : Marc-Olivier Méhu
Soutien technique & logistique : Manuel Goepfert

Contact : metmap@orbifly.com




SOURCES & CREDITS :

   NOAA